Time;durP1;ratioP1;P1;durP2;ratioP2;P2;SDS_P1;SDS_P2;PMS_P1;PMS_P2;Temp;Humidity;BMP_temperature;BMP_pressure;BME280_temperature;BME280_humidity;BME280_pressure;Samples;Min_cycle;Max_cycle;Signal;HPM_P1;HPM_P2
2022/03/06 00:03:11;;;;;;;373.23;116.27;;;-2.00;99.90;;;;;;10217592;29;20199;-80
2022/03/06 00:08:33;;;;;;;290.73;100.00;;;-2.10;99.90;;;;;;10188551;29;20211;-79
2022/03/06 00:13:56;;;;;;;325.63;116.20;;;-2.10;99.90;;;;;;10201282;29;21046;-79
2022/03/06 00:19:19;;;;;;;274.33;106.90;;;-2.10;99.90;;;;;;10214365;29;20313;-79
2022/03/06 00:24:41;;;;;;;214.23;90.73;;;-2.20;99.90;;;;;;10174011;29;20300;-79
2022/03/06 00:30:05;;;;;;;185.07;71.90;;;-2.30;99.90;;;;;;10212001;29;20211;-79
2022/03/06 00:35:28;;;;;;;153.80;61.53;;;-2.30;99.90;;;;;;10201454;29;20201;-79
2022/03/06 00:40:50;;;;;;;161.60;60.30;;;-2.30;99.90;;;;;;10201266;29;20425;-79
2022/03/06 00:46:12;;;;;;;184.43;70.33;;;-2.30;99.90;;;;;;10215810;29;20211;-79
2022/03/06 00:51:34;;;;;;;196.50;72.43;;;-2.30;99.90;;;;;;10187046;29;20207;-79
2022/03/06 00:56:56;;;;;;;207.30;80.33;;;-2.40;99.90;;;;;;10215618;29;20236;-79
2022/03/06 01:02:18;;;;;;;205.17;82.00;;;-2.40;99.90;;;;;;10199505;29;20246;-78
2022/03/06 01:07:40;;;;;;;175.30;68.13;;;-2.50;99.90;;;;;;10215173;29;20223;-79
2022/03/06 01:13:04;;;;;;;165.57;64.03;;;-2.40;99.90;;;;;;10212690;29;20260;-79
2022/03/06 01:18:26;;;;;;;159.30;63.73;;;-2.40;99.90;;;;;;10199204;29;20235;-79
2022/03/06 01:23:48;;;;;;;145.87;59.17;;;-2.50;99.90;;;;;;10198787;29;20238;-78
2022/03/06 01:29:09;;;;;;;172.37;68.90;;;-2.60;99.90;;;;;;10214339;29;20293;-79
2022/03/06 01:34:31;;;;;;;115.97;49.07;;;-2.60;99.90;;;;;;10198305;29;20375;-79
2022/03/06 01:39:53;;;;;;;173.50;60.73;;;-2.60;99.90;;;;;;10213955;29;20234;-78
2022/03/06 01:45:21;;;;;;;117.27;46.37;;;-2.60;99.90;;;;;;10213905;29;20466;-78
2022/03/06 01:50:44;;;;;;;120.07;43.63;;;-2.80;99.90;;;;;;10198702;29;20201;-78
2022/03/06 01:56:08;;;;;;;121.37;42.97;;;-2.80;99.90;;;;;;10198046;29;20225;-78
2022/03/06 02:01:30;;;;;;;104.23;39.10;;;-2.80;99.90;;;;;;10198522;29;20426;-78
2022/03/06 02:06:52;;;;;;;112.20;41.47;;;-2.70;99.90;;;;;;10197165;29;20246;-78
2022/03/06 02:12:23;;;;;;;86.67;36.63;;;-2.80;99.90;;;;;;10184280;29;20217;-79
2022/03/06 02:17:46;;;;;;;74.67;31.93;;;-2.90;99.90;;;;;;10183886;29;20552;-79
2022/03/06 02:23:08;;;;;;;60.37;27.53;;;-2.90;99.90;;;;;;10195365;29;20238;-78
2022/03/06 02:28:30;;;;;;;64.23;27.77;;;-2.90;99.90;;;;;;10212237;29;20516;-78
2022/03/06 02:33:52;;;;;;;68.53;28.03;;;-3.00;99.90;;;;;;10189608;29;20223;-79
2022/03/06 02:39:14;;;;;;;61.83;27.50;;;-2.90;99.90;;;;;;10170694;29;20303;-79
2022/03/06 02:44:37;;;;;;;59.13;28.93;;;-2.90;99.90;;;;;;10158009;29;20197;-78
2022/03/06 02:49:58;;;;;;;94.20;41.07;;;-2.90;99.90;;;;;;10157785;29;20212;-78
2022/03/06 02:55:21;;;;;;;81.67;36.80;;;-2.90;99.90;;;;;;10157781;29;20199;-77
2022/03/06 03:00:43;;;;;;;97.40;40.13;;;-3.00;99.90;;;;;;10170910;29;20229;-79
2022/03/06 03:06:09;;;;;;;100.93;42.37;;;-3.00;99.90;;;;;;10205636;29;20202;-79
2022/03/06 03:11:31;;;;;;;67.63;32.80;;;-3.00;99.90;;;;;;10195093;29;20200;-79
2022/03/06 03:16:54;;;;;;;64.67;31.27;;;-3.10;99.90;;;;;;10208573;29;20221;-78
2022/03/06 03:22:16;;;;;;;54.40;26.93;;;-3.10;99.90;;;;;;10193997;29;20503;-79
2022/03/06 03:27:38;;;;;;;48.93;22.83;;;-3.10;99.90;;;;;;10210534;29;20414;-79
2022/03/06 03:33:03;;;;;;;48.87;24.97;;;-3.10;99.90;;;;;;10194981;29;20198;-79
2022/03/06 03:38:24;;;;;;;51.83;25.80;;;-3.20;99.90;;;;;;10210521;29;20227;-78
2022/03/06 03:43:46;;;;;;;57.23;25.23;;;-3.20;99.90;;;;;;10210150;29;20206;-78
2022/03/06 03:49:08;;;;;;;62.30;30.33;;;-3.20;99.90;;;;;;10210432;29;20214;-79
2022/03/06 03:54:30;;;;;;;49.33;24.23;;;-3.20;99.90;;;;;;10210181;29;20206;-80
2022/03/06 03:59:52;;;;;;;42.80;20.90;;;-3.20;99.90;;;;;;10181039;29;20231;-79
2022/03/06 04:05:14;;;;;;;41.60;20.90;;;-3.20;99.90;;;;;;10193655;29;20203;-77
2022/03/06 04:10:36;;;;;;;45.93;20.53;;;-3.30;99.90;;;;;;10195272;29;20413;-79
2022/03/06 04:15:59;;;;;;;44.10;20.93;;;-3.20;99.90;;;;;;10196591;29;20282;-78
2022/03/06 04:21:21;;;;;;;103.13;43.70;;;-3.30;99.90;;;;;;10215211;29;20384;-78
2022/03/06 04:26:44;;;;;;;121.63;55.13;;;-3.30;99.90;;;;;;10202114;29;20242;-79
2022/03/06 04:32:06;;;;;;;113.63;49.77;;;-3.30;99.90;;;;;;10191861;29;20196;-79
2022/03/06 04:37:28;;;;;;;130.20;57.00;;;-3.40;99.90;;;;;;10203248;29;20231;-78
2022/03/06 04:42:50;;;;;;;129.63;56.67;;;-3.40;99.90;;;;;;10201583;29;20250;-78
2022/03/06 04:48:12;;;;;;;140.47;64.40;;;-3.50;99.90;;;;;;10201590;29;20203;-79
2022/03/06 04:53:34;;;;;;;155.23;64.50;;;-3.50;99.90;;;;;;10213782;29;20261;-78
2022/03/06 04:58:56;;;;;;;76.33;34.03;;;-3.50;99.90;;;;;;10213279;29;20423;-78
2022/03/06 05:04:18;;;;;;;47.97;21.67;;;-3.50;99.90;;;;;;10199394;29;20202;-78
2022/03/06 05:09:40;;;;;;;52.23;22.70;;;-3.50;99.90;;;;;;10200600;29;20203;-79
2022/03/06 05:15:03;;;;;;;73.53;27.53;;;-3.60;99.90;;;;;;10214868;29;20202;-78
2022/03/06 05:20:28;;;;;;;86.93;32.67;;;-3.60;99.90;;;;;;10198550;29;20234;-79
2022/03/06 05:25:52;;;;;;;83.70;33.30;;;-3.60;99.90;;;;;;10206362;29;20240;-79
2022/03/06 05:31:15;;;;;;;70.53;29.63;;;-3.70;99.90;;;;;;10198265;29;20200;-78
2022/03/06 05:36:37;;;;;;;61.20;28.53;;;-3.50;99.90;;;;;;10199691;29;20263;-79
2022/03/06 05:42:00;;;;;;;45.60;23.03;;;-3.50;99.90;;;;;;10214007;29;20237;-78
2022/03/06 05:47:22;;;;;;;52.60;26.10;;;-3.40;99.90;;;;;;10211267;29;20202;-80
2022/03/06 05:52:44;;;;;;;77.10;42.00;;;-3.40;99.90;;;;;;10199039;29;20292;-78
2022/03/06 05:58:06;;;;;;;87.00;44.20;;;-3.40;99.90;;;;;;10198483;29;20237;-79
2022/03/06 06:03:29;;;;;;;88.83;46.83;;;-3.40;99.90;;;;;;10210411;29;20200;-79
2022/03/06 06:08:51;;;;;;;70.30;37.30;;;-3.30;99.90;;;;;;10213091;29;20211;-78
2022/03/06 06:14:13;;;;;;;65.90;34.73;;;-3.10;99.90;;;;;;10210317;29;20199;-78
2022/03/06 06:19:37;;;;;;;70.43;37.90;;;-3.00;99.90;;;;;;10197874;29;20234;-79
2022/03/06 06:25:00;;;;;;;65.97;35.10;;;-2.90;99.90;;;;;;10197354;29;20235;-79
2022/03/06 06:30:22;;;;;;;72.50;34.43;;;-2.70;99.90;;;;;;10209508;29;20194;-79
2022/03/06 06:35:44;;;;;;;211.63;83.23;;;-2.50;99.90;;;;;;10183195;29;20494;-79
2022/03/06 06:41:06;;;;;;;197.70;85.97;;;-2.20;99.90;;;;;;10196819;29;20230;-78
2022/03/06 06:46:28;;;;;;;105.43;50.87;;;-1.90;99.90;;;;;;10195915;29;20210;-79
2022/03/06 06:51:50;;;;;;;83.07;44.70;;;-1.50;99.90;;;;;;10197028;29;20240;-79
2022/03/06 06:57:12;;;;;;;34.60;20.13;;;-0.70;99.90;;;;;;10195582;29;20262;-79
2022/03/06 07:02:34;;;;;;;27.33;15.13;;;0.90;99.90;;;;;;10208964;29;20208;-80
2022/03/06 07:07:57;;;;;;;19.50;11.10;;;2.60;99.90;;;;;;10196346;29;20525;-80
2022/03/06 07:13:20;;;;;;;16.73;9.90;;;4.20;99.90;;;;;;10210694;29;20206;-79
2022/03/06 07:18:42;;;;;;;19.10;9.97;;;5.70;95.90;;;;;;10210704;29;20501;-81
2022/03/06 07:24:05;;;;;;;21.80;11.88;;;7.10;79.00;;;;;;10195075;29;20476;-81
2022/03/06 07:29:27;;;;;;;21.45;14.75;;;8.30;56.50;;;;;;10195863;29;20516;-78
2022/03/06 07:34:49;;;;;;;17.83;10.70;;;9.20;49.20;;;;;;10156856;29;20266;-77
2022/03/06 07:40:15;;;;;;;11.60;8.02;;;9.80;42.50;;;;;;10188709;29;20226;-78
2022/03/06 07:45:37;;;;;;;15.18;7.63;;;10.10;39.80;;;;;;10181750;29;20204;-77
2022/03/06 07:50:59;;;;;;;9.63;7.22;;;10.50;36.30;;;;;;10194605;29;20204;-79
2022/03/06 07:56:21;;;;;;;12.32;7.15;;;10.80;34.40;;;;;;10215953;29;20211;-79
2022/03/06 08:01:43;;;;;;;12.23;8.20;;;10.80;33.90;;;;;;10202952;29;20231;-79
2022/03/06 08:07:05;;;;;;;9.88;6.72;;;11.30;32.20;;;;;;10217495;29;20280;-80
2022/03/06 08:12:27;;;;;;;10.25;7.35;;;11.50;31.00;;;;;;10202479;29;20208;-80
2022/03/06 08:17:50;;;;;;;12.18;6.57;;;11.60;29.60;;;;;;10202231;29;20231;-78
2022/03/06 08:23:13;;;;;;;18.70;10.18;;;11.30;28.20;;;;;;10201101;29;20250;-79
2022/03/06 08:28:34;;;;;;;9.52;6.30;;;11.30;29.20;;;;;;10201952;29;20509;-80
2022/03/06 08:33:56;;;;;;;8.07;4.70;;;10.40;29.40;;;;;;10208884;29;20253;-80
2022/03/06 08:39:18;;;;;;;10.52;6.05;;;11.10;28.70;;;;;;10214042;29;20238;-79
2022/03/06 08:44:40;;;;;;;6.03;4.10;;;12.00;28.30;;;;;;10201485;29;20203;-78
2022/03/06 08:50:05;;;;;;;5.57;3.40;;;10.30;28.50;;;;;;10201479;29;20203;-78
2022/03/06 08:55:27;;;;;;;13.70;7.10;;;8.20;32.80;;;;;;10212951;29;20204;-78
2022/03/06 09:00:49;;;;;;;20.30;8.93;;;6.80;38.90;;;;;;10204020;29;20231;-79
2022/03/06 09:06:11;;;;;;;12.13;6.07;;;5.80;52.90;;;;;;10173841;29;20208;-78
2022/03/06 09:11:34;;;;;;;10.37;3.50;;;5.50;59.90;;;;;;10160066;29;20253;-76
2022/03/06 09:16:55;;;;;;;9.57;4.53;;;6.50;52.20;;;;;;10173372;29;20424;-79
2022/03/06 09:22:17;;;;;;;7.27;4.17;;;7.30;44.90;;;;;;10178727;29;20503;-78
2022/03/06 09:27:41;;;;;;;7.80;3.90;;;7.10;41.80;;;;;;10198626;29;20203;-78
2022/03/06 09:33:03;;;;;;;13.33;5.37;;;6.60;43.40;;;;;;10199465;29;20250;-80
2022/03/06 09:38:25;;;;;;;11.20;4.30;;;6.20;45.40;;;;;;10214194;29;20256;-78
2022/03/06 09:43:49;;;;;;;6.93;3.50;;;7.00;45.50;;;;;;10211585;29;20195;-79
2022/03/06 09:49:12;;;;;;;5.97;3.73;;;7.90;42.10;;;;;;10199182;29;20265;-77
2022/03/06 09:54:34;;;;;;;10.03;4.80;;;7.40;39.70;;;;;;10213442;29;20204;-79
2022/03/06 09:59:56;;;;;;;9.00;4.20;;;6.40;42.80;;;;;;10183973;29;20259;-79
2022/03/06 10:05:31;;;;;;;6.90;3.70;;;6.00;44.50;;;;;;10212891;29;20379;-80
2022/03/06 10:11:10;;;;;;;5.83;3.60;;;7.90;40.20;;;;;;10199784;29;20213;-79
2022/03/06 10:16:32;;;;;;;8.73;4.27;;;8.50;35.20;;;;;;10209947;29;20225;-80
2022/03/06 10:22:11;;;;;;;11.50;5.30;;;7.60;37.40;;;;;;10196752;29;20259;-80
2022/03/06 10:27:53;;;;;;;12.47;6.37;;;7.20;40.10;;;;;;10188256;29;20233;-80
2022/03/06 10:33:20;;;;;;;11.60;5.63;;;6.70;43.30;;;;;;10211495;29;20199;-80
2022/03/06 10:38:42;;;;;;;11.30;4.60;;;6.60;43.50;;;;;;10196428;29;20233;-80
2022/03/06 10:44:09;;;;;;;8.13;4.43;;;6.30;45.90;;;;;;10212003;29;20204;-80
2022/03/06 10:49:32;;;;;;;9.47;4.53;;;6.70;46.60;;;;;;10209842;29;20254;-80
2022/03/06 10:54:56;;;;;;;9.33;4.07;;;7.10;44.70;;;;;;10211827;29;20279;-80
2022/03/06 11:00:18;;;;;;;17.87;5.60;;;6.80;46.20;;;;;;10195468;29;20460;-80
2022/03/06 11:05:42;;;;;;;22.07;6.40;;;6.90;46.80;;;;;;10210855;29;20272;-81
2022/03/06 11:11:09;;;;;;;10.13;4.07;;;7.00;46.40;;;;;;10182425;29;20231;-80
2022/03/06 11:16:31;;;;;;;6.77;4.53;;;6.70;47.00;;;;;;10211108;29;20229;-80
2022/03/06 11:22:21;;;;;;;8.60;3.13;;;6.30;52.80;;;;;;10195271;29;20236;-80
2022/03/06 11:28:10;;;;;;;9.53;3.80;;;6.40;56.20;;;;;;10182379;29;20203;-80
2022/03/06 11:33:32;;;;;;;5.13;3.07;;;6.60;53.70;;;;;;10203770;29;20277;-80
2022/03/06 11:38:54;;;;;;;3.57;2.37;;;6.80;54.90;;;;;;10218519;29;20254;-80
2022/03/06 11:44:33;;;;;;;9.23;4.83;;;6.80;56.30;;;;;;10203779;29;20242;-80
2022/03/06 11:50:00;;;;;;;15.30;6.40;;;6.60;55.70;;;;;;10203366;29;20516;-79
2022/03/06 11:55:33;;;;;;;10.70;5.50;;;6.40;57.90;;;;;;10203382;29;20196;-79
2022/03/06 12:00:56;;;;;;;19.50;9.23;;;6.30;59.40;;;;;;10217402;29;20308;-80
2022/03/06 12:06:18;;;;;;;9.07;3.83;;;6.30;64.30;;;;;;10202978;29;20198;-80
2022/03/06 12:11:41;;;;;;;15.07;6.83;;;6.10;67.40;;;;;;10188507;29;20418;-79
2022/03/06 12:22:42;;;;;;;23.70;10.13;;;5.70;76.60;;;;;;10216319;29;20226;-79
2022/03/06 12:28:07;;;;;;;21.23;10.73;;;5.50;80.80;;;;;;10216727;29;20232;-80
2022/03/06 12:33:35;;;;;;;9.50;5.20;;;5.40;88.90;;;;;;10203129;29;20197;-80
2022/03/06 12:39:04;;;;;;;9.07;4.73;;;5.20;91.20;;;;;;10201368;29;20284;-79
2022/03/06 12:44:31;;;;;;;6.37;3.57;;;4.90;93.20;;;;;;10201380;29;20203;-79
2022/03/06 12:49:53;;;;;;;14.90;7.70;;;4.80;94.70;;;;;;10200369;29;20263;-79
2022/03/06 12:55:18;;;;;;;16.83;8.13;;;4.70;95.90;;;;;;10200364;29;20207;-78
2022/03/06 13:00:41;;;;;;;7.23;3.73;;;4.70;96.30;;;;;;10200364;29;20251;-80
2022/03/06 13:06:14;;;;;;;8.80;4.30;;;4.50;97.30;;;;;;10201079;29;20204;-80
2022/03/06 13:11:39;;;;;;;11.27;5.50;;;4.60;97.30;;;;;;10199792;29;20207;-80
2022/03/06 13:17:07;;;;;;;8.60;4.07;;;4.50;97.20;;;;;;10199927;29;20418;-81
2022/03/06 13:22:29;;;;;;;15.40;5.87;;;4.60;98.20;;;;;;10193340;29;20463;-80
2022/03/06 13:27:52;;;;;;;8.17;4.73;;;4.50;97.70;;;;;;10200173;29;20204;-79
2022/03/06 13:33:19;;;;;;;9.60;4.93;;;4.40;98.50;;;;;;10198804;29;20204;-79
2022/03/06 13:38:43;;;;;;;10.93;4.77;;;4.20;99.90;;;;;;10211862;29;20234;-78
2022/03/06 13:44:06;;;;;;;6.17;2.83;;;4.00;99.90;;;;;;10199035;29;20202;-80
2022/03/06 13:49:35;;;;;;;16.57;8.13;;;3.70;99.90;;;;;;10213966;29;20504;-80
2022/03/06 13:55:09;;;;;;;9.87;5.07;;;3.60;99.90;;;;;;10197576;29;20214;-79
2022/03/06 14:00:40;;;;;;;13.30;6.37;;;3.60;99.90;;;;;;10199951;29;20237;-80
2022/03/06 14:06:08;;;;;;;11.13;5.90;;;3.60;99.90;;;;;;10198437;29;20274;-80
2022/03/06 14:11:30;;;;;;;9.90;5.20;;;3.50;99.90;;;;;;10198176;29;20208;-80
2022/03/06 14:17:03;;;;;;;11.33;4.67;;;3.60;99.90;;;;;;10212752;29;20227;-79
2022/03/06 14:22:25;;;;;;;9.53;5.13;;;3.50;99.90;;;;;;10209537;29;20232;-80
2022/03/06 14:27:47;;;;;;;9.33;3.90;;;3.40;99.90;;;;;;10183213;29;20278;-80
2022/03/06 14:33:10;;;;;;;7.80;3.63;;;3.40;99.90;;;;;;10197513;29;20234;-80
2022/03/06 14:38:32;;;;;;;5.87;3.70;;;3.40;99.90;;;;;;10197362;29;20227;-79
2022/03/06 14:43:58;;;;;;;9.17;4.27;;;3.40;99.90;;;;;;10196450;29;20280;-79
2022/03/06 14:49:21;;;;;;;14.40;7.00;;;3.30;99.90;;;;;;10211635;29;20250;-80
2022/03/06 14:54:45;;;;;;;17.83;7.33;;;3.30;99.90;;;;;;10211206;29;20230;-79
2022/03/06 15:00:09;;;;;;;13.53;5.60;;;3.50;99.90;;;;;;10208733;29;20273;-79
2022/03/06 15:05:31;;;;;;;6.87;3.63;;;3.60;99.90;;;;;;10195465;29;20394;-81
2022/03/06 15:10:53;;;;;;;21.80;9.63;;;3.60;99.90;;;;;;10194971;29;20206;-80
2022/03/06 15:16:15;;;;;;;22.97;10.13;;;3.70;99.90;;;;;;10196231;29;20201;-79
2022/03/06 15:21:37;;;;;;;21.50;11.87;;;3.60;99.90;;;;;;10195732;29;20436;-80
2022/03/06 15:27:00;;;;;;;18.60;9.33;;;3.60;99.90;;;;;;10207886;29;20235;-79
2022/03/06 15:32:23;;;;;;;14.03;7.37;;;3.60;99.90;;;;;;10194694;29;20243;-79
2022/03/06 15:37:45;;;;;;;18.97;7.93;;;3.50;99.90;;;;;;10195686;29;20199;-80
2022/03/06 15:43:06;;;;;;;14.40;6.77;;;3.40;99.90;;;;;;10196956;29;20369;-80
2022/03/06 15:48:28;;;;;;;11.17;5.73;;;3.20;99.90;;;;;;10181034;29;20222;-80
2022/03/06 15:53:52;;;;;;;13.30;6.13;;;3.10;99.90;;;;;;10194877;29;20271;-79
2022/03/06 15:59:14;;;;;;;12.63;5.93;;;3.20;99.90;;;;;;10194599;29;20281;-79
2022/03/06 16:04:36;;;;;;;10.20;5.10;;;3.20;99.90;;;;;;10195548;29;20195;-80
2022/03/06 16:09:58;;;;;;;8.77;4.87;;;3.10;99.90;;;;;;10207404;29;20199;-77
2022/03/06 16:15:20;;;;;;;9.50;4.93;;;3.10;99.90;;;;;;10212372;29;20202;-79
2022/03/06 16:20:42;;;;;;;9.33;4.70;;;3.00;99.90;;;;;;10216803;29;20230;-79
2022/03/06 16:26:04;;;;;;;11.30;4.70;;;3.00;99.90;;;;;;10200503;29;20442;-79
2022/03/06 16:31:27;;;;;;;10.83;4.50;;;3.00;99.90;;;;;;10200753;29;20207;-79
2022/03/06 16:36:49;;;;;;;8.30;4.40;;;3.00;99.90;;;;;;10215461;29;20394;-80
2022/03/06 16:42:12;;;;;;;9.27;4.70;;;3.00;99.90;;;;;;10200908;29;20227;-79
2022/03/06 16:47:33;;;;;;;9.73;4.73;;;2.90;99.90;;;;;;10200426;29;20208;-78
2022/03/06 16:52:55;;;;;;;10.83;4.67;;;2.90;99.90;;;;;;10201008;29;20241;-79
2022/03/06 16:58:17;;;;;;;13.17;5.47;;;3.00;99.90;;;;;;10213660;29;20199;-79
2022/03/06 17:03:39;;;;;;;14.90;7.27;;;2.90;99.90;;;;;;10200889;29;20196;-79
2022/03/06 17:09:03;;;;;;;16.37;6.90;;;2.90;99.90;;;;;;10200525;29;20230;-78
2022/03/06 17:14:25;;;;;;;16.80;7.73;;;2.90;99.90;;;;;;10185663;29;20204;-81
2022/03/06 17:19:46;;;;;;;20.30;8.87;;;2.80;99.90;;;;;;10215554;29;20235;-80
2022/03/06 17:25:09;;;;;;;15.03;7.10;;;2.90;99.90;;;;;;10210346;29;20274;-78
2022/03/06 17:30:31;;;;;;;16.23;7.43;;;2.80;99.90;;;;;;10199526;29;20386;-79
2022/03/06 17:35:55;;;;;;;21.93;10.97;;;2.80;99.90;;;;;;10213354;29;20212;-78
2022/03/06 17:41:17;;;;;;;18.50;9.27;;;2.70;99.90;;;;;;10213822;29;20246;-79
2022/03/06 17:46:40;;;;;;;16.13;6.80;;;2.60;99.90;;;;;;10213718;29;20501;-79
2022/03/06 17:52:04;;;;;;;13.47;6.03;;;2.50;99.90;;;;;;10213229;29;20234;-80
2022/03/06 17:57:27;;;;;;;14.03;7.37;;;2.50;99.90;;;;;;10184368;29;20212;-80
2022/03/06 18:02:49;;;;;;;12.47;6.83;;;2.40;99.90;;;;;;10196958;29;20249;-81
2022/03/06 18:08:12;;;;;;;20.97;7.30;;;2.30;99.90;;;;;;10184190;29;20511;-79
2022/03/06 18:13:38;;;;;;;15.80;7.67;;;2.40;99.90;;;;;;10198213;29;20230;-80
2022/03/06 18:19:01;;;;;;;13.97;7.20;;;2.40;99.90;;;;;;10183361;29;20230;-79
2022/03/06 18:24:23;;;;;;;16.90;8.87;;;2.40;99.90;;;;;;10211399;29;20251;-79
2022/03/06 18:29:45;;;;;;;15.27;9.10;;;2.40;99.90;;;;;;10196661;29;20289;-80
2022/03/06 18:35:08;;;;;;;18.17;9.03;;;2.40;99.90;;;;;;10182781;29;20207;-80
2022/03/06 18:40:31;;;;;;;19.00;8.63;;;2.40;99.90;;;;;;10196762;29;20253;-81
2022/03/06 18:45:53;;;;;;;21.13;9.10;;;2.40;99.90;;;;;;10195661;29;20203;-80
2022/03/06 18:51:16;;;;;;;18.37;9.37;;;2.40;99.90;;;;;;10182548;29;20227;-79
2022/03/06 18:56:38;;;;;;;20.77;8.93;;;2.40;99.90;;;;;;10196681;29;20229;-80
2022/03/06 19:02:03;;;;;;;20.80;9.90;;;2.50;99.90;;;;;;10208336;29;20243;-79
2022/03/06 19:07:26;;;;;;;29.93;13.17;;;2.40;99.90;;;;;;10182348;29;20202;-79
2022/03/06 19:12:49;;;;;;;31.43;13.60;;;2.40;99.90;;;;;;10210840;29;20285;-80
2022/03/06 19:18:11;;;;;;;31.77;13.77;;;2.30;99.90;;;;;;10194835;29;20202;-80
2022/03/06 19:23:35;;;;;;;33.50;12.43;;;2.20;99.90;;;;;;10180813;29;20467;-80
2022/03/06 19:28:57;;;;;;;39.50;14.90;;;2.10;99.90;;;;;;10195829;29;20550;-79
2022/03/06 19:34:19;;;;;;;32.47;14.70;;;2.00;99.90;;;;;;10208102;29;20226;-80
2022/03/06 19:39:42;;;;;;;30.10;13.00;;;2.00;99.90;;;;;;10195508;29;20230;-80
2022/03/06 19:45:05;;;;;;;27.03;12.30;;;2.00;99.90;;;;;;10194365;29;20210;-80
2022/03/06 19:50:27;;;;;;;25.03;12.07;;;2.00;99.90;;;;;;10206052;29;20227;-79
2022/03/06 19:55:49;;;;;;;26.60;13.00;;;2.00;99.90;;;;;;10203495;29;20415;-79
2022/03/06 20:01:11;;;;;;;35.30;15.37;;;2.10;99.90;;;;;;10202126;29;20413;-79
2022/03/06 20:06:33;;;;;;;33.63;14.77;;;2.00;99.90;;;;;;10178371;29;20199;-79
2022/03/06 20:11:55;;;;;;;22.60;9.13;;;2.00;99.90;;;;;;10215436;29;20278;-79
2022/03/06 20:17:17;;;;;;;21.60;9.07;;;1.90;99.90;;;;;;10202427;29;20459;-79
2022/03/06 20:22:40;;;;;;;28.73;11.10;;;1.80;99.90;;;;;;10212636;29;20229;-80
2022/03/06 20:28:04;;;;;;;48.07;15.73;;;1.70;99.90;;;;;;10201964;29;20230;-80
2022/03/06 20:33:43;;;;;;;25.67;11.67;;;1.70;99.90;;;;;;10201301;29;20198;-78
2022/03/06 20:39:05;;;;;;;24.23;11.33;;;1.50;99.90;;;;;;10216408;29;20235;-80
2022/03/06 20:44:27;;;;;;;24.47;12.53;;;1.50;99.90;;;;;;10216052;29;20289;-79
2022/03/06 20:49:49;;;;;;;36.10;12.87;;;1.40;99.90;;;;;;10187052;29;20257;-79
2022/03/06 20:55:11;;;;;;;35.00;13.27;;;1.30;99.90;;;;;;10213841;29;20194;-79
2022/03/06 21:00:34;;;;;;;32.83;13.90;;;1.20;99.90;;;;;;10212559;29;20234;-80
2022/03/06 21:05:56;;;;;;;38.03;15.77;;;1.20;99.90;;;;;;10199418;29;20197;-80
2022/03/06 21:11:18;;;;;;;37.83;15.00;;;1.20;99.90;;;;;;10201932;29;20212;-79
2022/03/06 21:16:41;;;;;;;27.53;12.77;;;1.10;99.90;;;;;;10200339;29;20197;-80
2022/03/06 21:22:04;;;;;;;26.53;13.13;;;1.00;99.90;;;;;;10198162;29;20229;-80
2022/03/06 21:27:26;;;;;;;36.83;15.00;;;1.00;99.90;;;;;;10202398;29;20230;-80
2022/03/06 21:32:48;;;;;;;39.03;16.13;;;0.90;99.90;;;;;;10199490;29;20252;-79
2022/03/06 21:38:11;;;;;;;28.13;13.23;;;0.90;99.90;;;;;;10214360;29;20245;-80
2022/03/06 21:43:33;;;;;;;25.73;12.50;;;0.80;99.90;;;;;;10198630;29;20409;-80
2022/03/06 21:48:55;;;;;;;28.37;12.83;;;0.80;99.90;;;;;;10199260;29;20416;-80
2022/03/06 21:54:19;;;;;;;26.47;12.80;;;0.70;99.90;;;;;;10198795;29;20202;-80
2022/03/06 21:59:41;;;;;;;25.77;11.87;;;0.60;99.90;;;;;;10211039;29;20601;-79
2022/03/06 22:05:05;;;;;;;26.07;10.83;;;0.60;99.90;;;;;;10213505;29;20215;-80
2022/03/06 22:10:27;;;;;;;27.43;11.97;;;0.50;99.90;;;;;;10198244;29;20196;-80
2022/03/06 22:15:49;;;;;;;24.23;11.47;;;0.50;99.90;;;;;;10197473;29;20292;-79
2022/03/06 22:21:12;;;;;;;16.37;8.13;;;0.60;99.90;;;;;;10197551;29;20224;-80
2022/03/06 22:26:34;;;;;;;11.83;7.20;;;0.60;99.90;;;;;;10211434;29;20534;-79
2022/03/06 22:31:57;;;;;;;17.03;9.17;;;0.70;99.90;;;;;;10197638;29;20245;-79
2022/03/06 22:37:19;;;;;;;13.27;6.87;;;0.80;99.90;;;;;;10212291;29;20228;-80
2022/03/06 22:42:41;;;;;;;10.47;6.30;;;0.90;99.90;;;;;;10195979;29;20233;-79
2022/03/06 22:48:05;;;;;;;11.63;6.07;;;0.90;99.90;;;;;;10211753;29;20204;-80
2022/03/06 22:53:27;;;;;;;8.27;5.37;;;1.00;99.90;;;;;;10195736;29;20454;-80
2022/03/06 22:58:49;;;;;;;10.03;5.93;;;1.10;99.90;;;;;;10211379;29;20197;-79
2022/03/06 23:09:52;;;;;;;14.07;6.43;;;1.00;99.90;;;;;;10210845;29;20212;-79
2022/03/06 23:15:14;;;;;;;12.63;7.07;;;1.10;99.90;;;;;;10196393;29;20193;-78
2022/03/06 23:20:37;;;;;;;9.57;6.20;;;1.20;99.90;;;;;;10210488;29;21251;-79
2022/03/06 23:26:00;;;;;;;9.20;4.70;;;1.20;99.90;;;;;;10195160;29;20241;-79
2022/03/06 23:31:22;;;;;;;9.13;4.83;;;1.30;99.90;;;;;;10208428;29;20272;-80
2022/03/06 23:36:47;;;;;;;9.60;5.00;;;1.40;99.90;;;;;;10181715;29;20195;-80
2022/03/06 23:42:09;;;;;;;15.53;7.83;;;1.50;99.90;;;;;;10210662;29;20527;-79
2022/03/06 23:47:32;;;;;;;15.33;7.27;;;1.60;99.90;;;;;;10195907;29;20199;-80
2022/03/06 23:52:54;;;;;;;13.47;6.43;;;1.60;99.90;;;;;;10195491;29;20202;-79
2022/03/06 23:58:16;;;;;;;12.17;5.43;;;1.60;99.90;;;;;;10207736;29;20194;-80
